sensor_id;sensor_type;location;lat;lon;timestamp;temperature;humidity
11736;DHT22;5924;51.398;7.088;2023-06-04T00:01:29;9.20;99.90
11736;DHT22;5924;51.398;7.088;2023-06-04T00:03:57;9.20;99.90
11736;DHT22;5924;51.398;7.088;2023-06-04T00:06:23;9.20;99.90
11736;DHT22;5924;51.398;7.088;2023-06-04T00:08:51;9.10;99.90
11736;DHT22;5924;51.398;7.088;2023-06-04T00:11:32;9.10;99.90
11736;DHT22;5924;51.398;7.088;2023-06-04T00:14:00;9.10;99.90
11736;DHT22;5924;51.398;7.088;2023-06-04T00:16:25;9.00;99.90
11736;DHT22;5924;51.398;7.088;2023-06-04T00:18:51;9.00;99.90
11736;DHT22;5924;51.398;7.088;2023-06-04T00:21:17;8.90;99.90
11736;DHT22;5924;51.398;7.088;2023-06-04T00:23:42;8.90;99.90
11736;DHT22;5924;51.398;7.088;2023-06-04T00:26:08;8.90;99.90
11736;DHT22;5924;51.398;7.088;2023-06-04T00:28:36;8.80;99.90
11736;DHT22;5924;51.398;7.088;2023-06-04T00:31:07;8.80;99.90
11736;DHT22;5924;51.398;7.088;2023-06-04T00:33:33;8.70;99.90
11736;DHT22;5924;51.398;7.088;2023-06-04T00:36:07;8.60;99.90
11736;DHT22;5924;51.398;7.088;2023-06-04T00:38:33;8.60;99.90
11736;DHT22;5924;51.398;7.088;2023-06-04T00:41:01;8.50;99.90
11736;DHT22;5924;51.398;7.088;2023-06-04T00:43:27;8.50;99.90
11736;DHT22;5924;51.398;7.088;2023-06-04T00:45:53;8.50;99.90
11736;DHT22;5924;51.398;7.088;2023-06-04T00:48:23;8.50;99.90
11736;DHT22;5924;51.398;7.088;2023-06-04T00:50:53;8.50;99.90
11736;DHT22;5924;51.398;7.088;2023-06-04T00:53:20;8.50;99.90
11736;DHT22;5924;51.398;7.088;2023-06-04T00:55:50;8.50;99.90
11736;DHT22;5924;51.398;7.088;2023-06-04T00:58:18;8.40;99.90
11736;DHT22;5924;51.398;7.088;2023-06-04T01:00:45;8.40;99.90
11736;DHT22;5924;51.398;7.088;2023-06-04T01:03:14;8.30;99.90
11736;DHT22;5924;51.398;7.088;2023-06-04T01:06:04;8.20;99.90
11736;DHT22;5924;51.398;7.088;2023-06-04T01:08:36;8.20;99.90
11736;DHT22;5924;51.398;7.088;2023-06-04T01:11:02;8.20;99.90
11736;DHT22;5924;51.398;7.088;2023-06-04T01:13:28;8.20;99.90
11736;DHT22;5924;51.398;7.088;2023-06-04T01:15:56;8.20;99.90
11736;DHT22;5924;51.398;7.088;2023-06-04T01:18:26;8.20;99.90
11736;DHT22;5924;51.398;7.088;2023-06-04T01:21:08;8.20;99.90
11736;DHT22;5924;51.398;7.088;2023-06-04T01:24:04;8.10;99.90
11736;DHT22;5924;51.398;7.088;2023-06-04T01:26:32;8.10;99.90
11736;DHT22;5924;51.398;7.088;2023-06-04T01:29:06;8.00;99.90
11736;DHT22;5924;51.398;7.088;2023-06-04T01:31:32;8.00;99.90
11736;DHT22;5924;51.398;7.088;2023-06-04T01:33:59;8.00;99.90
11736;DHT22;5924;51.398;7.088;2023-06-04T01:36:25;8.00;99.90
11736;DHT22;5924;51.398;7.088;2023-06-04T01:38:53;7.90;99.90
11736;DHT22;5924;51.398;7.088;2023-06-04T01:41:22;7.90;99.90
11736;DHT22;5924;51.398;7.088;2023-06-04T01:43:47;7.90;99.90
11736;DHT22;5924;51.398;7.088;2023-06-04T01:46:16;7.80;99.90
11736;DHT22;5924;51.398;7.088;2023-06-04T01:48:41;7.80;99.90
11736;DHT22;5924;51.398;7.088;2023-06-04T01:51:07;7.70;99.90
11736;DHT22;5924;51.398;7.088;2023-06-04T01:53:32;7.70;99.90
11736;DHT22;5924;51.398;7.088;2023-06-04T01:56:00;7.70;99.90
11736;DHT22;5924;51.398;7.088;2023-06-04T01:58:29;7.70;99.90
11736;DHT22;5924;51.398;7.088;2023-06-04T02:01:08;7.60;99.90
11736;DHT22;5924;51.398;7.088;2023-06-04T02:03:35;7.60;99.90
11736;DHT22;5924;51.398;7.088;2023-06-04T02:06:03;7.60;99.90
11736;DHT22;5924;51.398;7.088;2023-06-04T02:08:36;7.60;99.90
11736;DHT22;5924;51.398;7.088;2023-06-04T02:11:04;7.60;99.90
11736;DHT22;5924;51.398;7.088;2023-06-04T02:13:32;10.60;99.90
11736;DHT22;5924;51.398;7.088;2023-06-04T02:15:57;7.50;99.90
11736;DHT22;5924;51.398;7.088;2023-06-04T02:18:23;7.40;99.90
11736;DHT22;5924;51.398;7.088;2023-06-04T02:20:50;7.40;99.90
11736;DHT22;5924;51.398;7.088;2023-06-04T02:23:19;7.30;99.90
11736;DHT22;5924;51.398;7.088;2023-06-04T02:25:50;7.30;99.90
11736;DHT22;5924;51.398;7.088;2023-06-04T02:28:18;7.30;99.90
11736;DHT22;5924;51.398;7.088;2023-06-04T02:30:44;7.20;99.90
11736;DHT22;5924;51.398;7.088;2023-06-04T02:33:16;7.20;99.90
11736;DHT22;5924;51.398;7.088;2023-06-04T02:35:42;7.20;99.90
11736;DHT22;5924;51.398;7.088;2023-06-04T02:38:08;7.20;99.90
11736;DHT22;5924;51.398;7.088;2023-06-04T02:40:37;7.20;99.90
11736;DHT22;5924;51.398;7.088;2023-06-04T02:43:02;7.10;99.90
11736;DHT22;5924;51.398;7.088;2023-06-04T02:45:28;7.10;99.90
11736;DHT22;5924;51.398;7.088;2023-06-04T02:47:54;7.10;99.90
11736;DHT22;5924;51.398;7.088;2023-06-04T02:50:20;7.10;99.90
11736;DHT22;5924;51.398;7.088;2023-06-04T02:52:48;7.00;99.90
11736;DHT22;5924;51.398;7.088;2023-06-04T02:55:14;7.00;99.90
11736;DHT22;5924;51.398;7.088;2023-06-04T02:57:43;7.00;99.90
11736;DHT22;5924;51.398;7.088;2023-06-04T03:00:13;8.50;99.90
11736;DHT22;5924;51.398;7.088;2023-06-04T03:02:47;7.00;99.90
11736;DHT22;5924;51.398;7.088;2023-06-04T03:05:14;3.50;99.90
11736;DHT22;5924;51.398;7.088;2023-06-04T03:07:41;7.10;99.90
11736;DHT22;5924;51.398;7.088;2023-06-04T03:10:09;6.90;99.90
11736;DHT22;5924;51.398;7.088;2023-06-04T03:12:36;6.90;99.90
11736;DHT22;5924;51.398;7.088;2023-06-04T03:15:02;6.80;99.90
11736;DHT22;5924;51.398;7.088;2023-06-04T03:17:27;6.80;99.90
11736;DHT22;5924;51.398;7.088;2023-06-04T03:19:56;6.80;99.90
11736;DHT22;5924;51.398;7.088;2023-06-04T03:22:27;6.80;99.90
11736;DHT22;5924;51.398;7.088;2023-06-04T03:24:53;6.80;99.90
11736;DHT22;5924;51.398;7.088;2023-06-04T03:27:19;6.80;99.90
11736;DHT22;5924;51.398;7.088;2023-06-04T03:29:48;6.80;99.90
11736;DHT22;5924;51.398;7.088;2023-06-04T03:32:17;6.80;99.90
11736;DHT22;5924;51.398;7.088;2023-06-04T03:34:43;6.80;99.90
11736;DHT22;5924;51.398;7.088;2023-06-04T03:37:08;6.80;99.90
11736;DHT22;5924;51.398;7.088;2023-06-04T03:39:35;6.80;99.90
11736;DHT22;5924;51.398;7.088;2023-06-04T03:42:00;6.80;99.90
11736;DHT22;5924;51.398;7.088;2023-06-04T03:44:26;6.80;99.90
11736;DHT22;5924;51.398;7.088;2023-06-04T03:46:52;6.80;99.90
11736;DHT22;5924;51.398;7.088;2023-06-04T03:49:29;6.80;99.90
11736;DHT22;5924;51.398;7.088;2023-06-04T03:51:55;6.80;99.90
11736;DHT22;5924;51.398;7.088;2023-06-04T03:54:24;6.80;99.90
11736;DHT22;5924;51.398;7.088;2023-06-04T03:56:49;6.80;99.90
11736;DHT22;5924;51.398;7.088;2023-06-04T03:59:18;6.80;99.90
11736;DHT22;5924;51.398;7.088;2023-06-04T04:01:44;6.70;99.90
11736;DHT22;5924;51.398;7.088;2023-06-04T04:04:12;6.70;99.90
11736;DHT22;5924;51.398;7.088;2023-06-04T04:06:38;6.70;99.90
11736;DHT22;5924;51.398;7.088;2023-06-04T04:09:09;6.80;99.90
11736;DHT22;5924;51.398;7.088;2023-06-04T04:11:38;6.80;99.90
11736;DHT22;5924;51.398;7.088;2023-06-04T04:14:07;6.80;99.90
11736;DHT22;5924;51.398;7.088;2023-06-04T04:16:32;6.80;99.90
11736;DHT22;5924;51.398;7.088;2023-06-04T04:18:58;6.90;99.90
11736;DHT22;5924;51.398;7.088;2023-06-04T04:21:36;6.90;99.90
11736;DHT22;5924;51.398;7.088;2023-06-04T04:24:04;6.90;99.90
11736;DHT22;5924;51.398;7.088;2023-06-04T04:26:30;6.90;99.90
11736;DHT22;5924;51.398;7.088;2023-06-04T04:28:56;6.90;99.90
11736;DHT22;5924;51.398;7.088;2023-06-04T04:31:27;6.90;99.90
11736;DHT22;5924;51.398;7.088;2023-06-04T04:33:54;6.90;99.90
11736;DHT22;5924;51.398;7.088;2023-06-04T04:36:25;6.90;99.90
11736;DHT22;5924;51.398;7.088;2023-06-04T04:38:51;7.00;99.90
11736;DHT22;5924;51.398;7.088;2023-06-04T04:41:22;7.00;99.90
11736;DHT22;5924;51.398;7.088;2023-06-04T04:43:52;7.10;99.90
11736;DHT22;5924;51.398;7.088;2023-06-04T04:46:18;7.10;99.90
11736;DHT22;5924;51.398;7.088;2023-06-04T04:48:44;7.10;99.90
11736;DHT22;5924;51.398;7.088;2023-06-04T04:51:09;7.20;99.90
11736;DHT22;5924;51.398;7.088;2023-06-04T04:53:38;7.20;99.90
11736;DHT22;5924;51.398;7.088;2023-06-04T04:56:04;7.20;99.90
11736;DHT22;5924;51.398;7.088;2023-06-04T04:58:29;7.30;99.90
11736;DHT22;5924;51.398;7.088;2023-06-04T05:00:58;7.50;99.90
11736;DHT22;5924;51.398;7.088;2023-06-04T05:03:27;7.40;99.90
11736;DHT22;5924;51.398;7.088;2023-06-04T05:05:52;7.50;99.90
11736;DHT22;5924;51.398;7.088;2023-06-04T05:08:18;7.50;99.90
11736;DHT22;5924;51.398;7.088;2023-06-04T05:10:43;7.60;99.90
11736;DHT22;5924;51.398;7.088;2023-06-04T05:13:09;7.60;99.90
11736;DHT22;5924;51.398;7.088;2023-06-04T05:15:45;7.70;99.90
11736;DHT22;5924;51.398;7.088;2023-06-04T05:18:20;7.80;99.90
11736;DHT22;5924;51.398;7.088;2023-06-04T05:21:00;7.90;99.90
11736;DHT22;5924;51.398;7.088;2023-06-04T05:23:28;8.00;99.90
11736;DHT22;5924;51.398;7.088;2023-06-04T05:25:54;8.10;99.90
11736;DHT22;5924;51.398;7.088;2023-06-04T05:28:20;8.20;99.90
11736;DHT22;5924;51.398;7.088;2023-06-04T05:30:51;8.30;99.90
11736;DHT22;5924;51.398;7.088;2023-06-04T05:33:17;10.30;99.90
11736;DHT22;5924;51.398;7.088;2023-06-04T05:35:47;8.50;99.90
11736;DHT22;5924;51.398;7.088;2023-06-04T05:38:19;8.60;99.90
11736;DHT22;5924;51.398;7.088;2023-06-04T05:40:51;8.70;99.90
11736;DHT22;5924;51.398;7.088;2023-06-04T05:43:18;8.80;99.90
11736;DHT22;5924;51.398;7.088;2023-06-04T05:45:46;9.00;99.90
11736;DHT22;5924;51.398;7.088;2023-06-04T05:48:12;9.10;99.90
11736;DHT22;5924;51.398;7.088;2023-06-04T05:50:38;9.20;99.90
11736;DHT22;5924;51.398;7.088;2023-06-04T05:53:03;9.30;99.90
11736;DHT22;5924;51.398;7.088;2023-06-04T05:55:29;9.50;99.90
11736;DHT22;5924;51.398;7.088;2023-06-04T05:57:55;9.60;99.90
11736;DHT22;5924;51.398;7.088;2023-06-04T06:00:21;9.80;99.90
11736;DHT22;5924;51.398;7.088;2023-06-04T06:02:51;10.10;99.90
11736;DHT22;5924;51.398;7.088;2023-06-04T06:05:18;10.30;99.90
11736;DHT22;5924;51.398;7.088;2023-06-04T06:07:47;10.40;99.90
11736;DHT22;5924;51.398;7.088;2023-06-04T06:10:13;10.60;99.90
11736;DHT22;5924;51.398;7.088;2023-06-04T06:12:49;10.80;99.90
11736;DHT22;5924;51.398;7.088;2023-06-04T06:15:14;10.90;99.90
11736;DHT22;5924;51.398;7.088;2023-06-04T06:17:40;11.00;99.90
11736;DHT22;5924;51.398;7.088;2023-06-04T06:20:10;11.20;99.90
11736;DHT22;5924;51.398;7.088;2023-06-04T06:22:36;11.30;99.90
11736;DHT22;5924;51.398;7.088;2023-06-04T06:25:05;11.40;99.90
11736;DHT22;5924;51.398;7.088;2023-06-04T06:27:32;11.60;99.90
11736;DHT22;5924;51.398;7.088;2023-06-04T06:29:57;11.80;99.90
11736;DHT22;5924;51.398;7.088;2023-06-04T06:32:23;11.80;99.90
11736;DHT22;5924;51.398;7.088;2023-06-04T06:34:48;11.90;99.90
11736;DHT22;5924;51.398;7.088;2023-06-04T06:37:14;12.00;99.90
11736;DHT22;5924;51.398;7.088;2023-06-04T06:39:40;12.10;99.90
11736;DHT22;5924;51.398;7.088;2023-06-04T06:42:08;12.20;99.90
11736;DHT22;5924;51.398;7.088;2023-06-04T06:44:34;12.40;99.90
11736;DHT22;5924;51.398;7.088;2023-06-04T06:47:00;12.50;99.90
11736;DHT22;5924;51.398;7.088;2023-06-04T06:49:26;12.70;99.90
11736;DHT22;5924;51.398;7.088;2023-06-04T06:51:51;12.80;99.90
11736;DHT22;5924;51.398;7.088;2023-06-04T06:54:18;12.90;99.90
11736;DHT22;5924;51.398;7.088;2023-06-04T06:56:49;13.00;99.90
11736;DHT22;5924;51.398;7.088;2023-06-04T06:59:16;13.10;99.90
11736;DHT22;5924;51.398;7.088;2023-06-04T07:01:45;13.20;99.90
11736;DHT22;5924;51.398;7.088;2023-06-04T07:04:18;13.40;99.90
11736;DHT22;5924;51.398;7.088;2023-06-04T07:06:50;13.40;99.90
11736;DHT22;5924;51.398;7.088;2023-06-04T07:09:15;13.50;99.90
11736;DHT22;5924;51.398;7.088;2023-06-04T07:11:47;13.60;99.90
11736;DHT22;5924;51.398;7.088;2023-06-04T07:14:12;13.80;99.90
11736;DHT22;5924;51.398;7.088;2023-06-04T07:16:38;13.90;99.90
11736;DHT22;5924;51.398;7.088;2023-06-04T07:19:07;14.00;99.90
11736;DHT22;5924;51.398;7.088;2023-06-04T07:21:32;14.10;99.90
11736;DHT22;5924;51.398;7.088;2023-06-04T07:23:58;14.30;99.90
11736;DHT22;5924;51.398;7.088;2023-06-04T07:26:23;14.40;99.90
11736;DHT22;5924;51.398;7.088;2023-06-04T07:28:50;14.50;99.90
11736;DHT22;5924;51.398;7.088;2023-06-04T07:31:17;14.70;99.90
11736;DHT22;5924;51.398;7.088;2023-06-04T07:33:45;14.90;99.90
11736;DHT22;5924;51.398;7.088;2023-06-04T07:36:14;15.10;99.90
11736;DHT22;5924;51.398;7.088;2023-06-04T07:38:40;15.30;99.90
11736;DHT22;5924;51.398;7.088;2023-06-04T07:41:09;15.40;99.90
11736;DHT22;5924;51.398;7.088;2023-06-04T07:43:36;15.60;99.90
11736;DHT22;5924;51.398;7.088;2023-06-04T07:46:05;16.30;99.90
11736;DHT22;5924;51.398;7.088;2023-06-04T07:48:31;15.90;99.90
11736;DHT22;5924;51.398;7.088;2023-06-04T07:51:13;16.10;99.90
11736;DHT22;5924;51.398;7.088;2023-06-04T07:53:39;16.20;99.90
11736;DHT22;5924;51.398;7.088;2023-06-04T07:56:05;16.40;99.90
11736;DHT22;5924;51.398;7.088;2023-06-04T07:58:34;16.50;99.90
11736;DHT22;5924;51.398;7.088;2023-06-04T08:01:02;16.60;99.90
11736;DHT22;5924;51.398;7.088;2023-06-04T08:03:30;16.80;99.90
11736;DHT22;5924;51.398;7.088;2023-06-04T08:05:56;16.90;99.90
11736;DHT22;5924;51.398;7.088;2023-06-04T08:08:43;17.10;99.90
11736;DHT22;5924;51.398;7.088;2023-06-04T08:11:14;17.30;99.90
11736;DHT22;5924;51.398;7.088;2023-06-04T08:13:40;17.50;99.90
11736;DHT22;5924;51.398;7.088;2023-06-04T08:16:06;17.70;99.90
11736;DHT22;5924;51.398;7.088;2023-06-04T08:18:33;19.00;99.90
11736;DHT22;5924;51.398;7.088;2023-06-04T08:20:58;18.10;99.90
11736;DHT22;5924;51.398;7.088;2023-06-04T08:23:27;18.30;99.90
11736;DHT22;5924;51.398;7.088;2023-06-04T08:25:53;18.30;99.90
11736;DHT22;5924;51.398;7.088;2023-06-04T08:28:18;18.30;99.90
11736;DHT22;5924;51.398;7.088;2023-06-04T08:30:45;18.50;99.90
11736;DHT22;5924;51.398;7.088;2023-06-04T08:33:14;18.70;99.90
11736;DHT22;5924;51.398;7.088;2023-06-04T08:35:40;18.80;99.90
11736;DHT22;5924;51.398;7.088;2023-06-04T08:38:05;19.00;99.90
11736;DHT22;5924;51.398;7.088;2023-06-04T08:40:31;19.10;99.90
11736;DHT22;5924;51.398;7.088;2023-06-04T08:42:56;19.20;99.90
11736;DHT22;5924;51.398;7.088;2023-06-04T08:45:25;19.30;99.90
11736;DHT22;5924;51.398;7.088;2023-06-04T08:47:51;19.40;99.90
11736;DHT22;5924;51.398;7.088;2023-06-04T08:50:19;19.60;98.40
11736;DHT22;5924;51.398;7.088;2023-06-04T08:52:45;19.70;98.70
11736;DHT22;5924;51.398;7.088;2023-06-04T08:55:14;19.80;97.60
11736;DHT22;5924;51.398;7.088;2023-06-04T08:57:47;19.90;96.50
11736;DHT22;5924;51.398;7.088;2023-06-04T09:00:20;20.00;93.90
11736;DHT22;5924;51.398;7.088;2023-06-04T09:02:47;20.00;92.70
11736;DHT22;5924;51.398;7.088;2023-06-04T09:05:21;20.10;92.80
11736;DHT22;5924;51.398;7.088;2023-06-04T09:07:48;20.10;90.40
11736;DHT22;5924;51.398;7.088;2023-06-04T09:10:21;20.30;91.60
11736;DHT22;5924;51.398;7.088;2023-06-04T09:12:54;20.50;92.60
11736;DHT22;5924;51.398;7.088;2023-06-04T09:15:21;20.70;92.30
11736;DHT22;5924;51.398;7.088;2023-06-04T09:17:47;20.80;91.20
11736;DHT22;5924;51.398;7.088;2023-06-04T09:20:22;20.90;88.20
11736;DHT22;5924;51.398;7.088;2023-06-04T09:22:51;20.80;87.10
11736;DHT22;5924;51.398;7.088;2023-06-04T09:25:22;19.60;85.70
11736;DHT22;5924;51.398;7.088;2023-06-04T09:27:48;21.00;86.30
11736;DHT22;5924;51.398;7.088;2023-06-04T09:30:16;21.10;85.60
11736;DHT22;5924;51.398;7.088;2023-06-04T09:32:45;21.20;83.00
11736;DHT22;5924;51.398;7.088;2023-06-04T09:35:16;21.20;83.80
11736;DHT22;5924;51.398;7.088;2023-06-04T09:37:52;21.30;85.70
11736;DHT22;5924;51.398;7.088;2023-06-04T09:40:23;21.40;82.40
11736;DHT22;5924;51.398;7.088;2023-06-04T09:42:58;21.40;83.20
11736;DHT22;5924;51.398;7.088;2023-06-04T09:45:31;21.60;83.00
11736;DHT22;5924;51.398;7.088;2023-06-04T09:48:03;21.60;82.60
11736;DHT22;5924;51.398;7.088;2023-06-04T09:50:33;21.90;84.50
11736;DHT22;5924;51.398;7.088;2023-06-04T09:53:00;21.90;81.40
11736;DHT22;5924;51.398;7.088;2023-06-04T09:55:26;22.00;82.40
11736;DHT22;5924;51.398;7.088;2023-06-04T09:57:53;22.00;82.00
11736;DHT22;5924;51.398;7.088;2023-06-04T10:00:21;22.00;80.40
11736;DHT22;5924;51.398;7.088;2023-06-04T10:02:49;22.10;77.70
11736;DHT22;5924;51.398;7.088;2023-06-04T10:05:16;22.10;75.30
11736;DHT22;5924;51.398;7.088;2023-06-04T10:07:47;22.20;76.70
11736;DHT22;5924;51.398;7.088;2023-06-04T10:10:17;22.30;76.30
11736;DHT22;5924;51.398;7.088;2023-06-04T10:12:45;22.40;79.30
11736;DHT22;5924;51.398;7.088;2023-06-04T10:15:12;22.50;77.40
11736;DHT22;5924;51.398;7.088;2023-06-04T10:17:41;22.60;77.30
11736;DHT22;5924;51.398;7.088;2023-06-04T10:20:28;22.70;78.00
11736;DHT22;5924;51.398;7.088;2023-06-04T10:22:54;22.70;75.20
11736;DHT22;5924;51.398;7.088;2023-06-04T10:25:23;22.80;72.20
11736;DHT22;5924;51.398;7.088;2023-06-04T10:27:51;22.70;72.60
11736;DHT22;5924;51.398;7.088;2023-06-04T10:30:20;22.70;72.80
11736;DHT22;5924;51.398;7.088;2023-06-04T10:32:46;22.70;73.40
11736;DHT22;5924;51.398;7.088;2023-06-04T10:35:12;22.80;73.30
11736;DHT22;5924;51.398;7.088;2023-06-04T10:37:39;22.80;73.30
11736;DHT22;5924;51.398;7.088;2023-06-04T10:40:06;22.90;75.20
11736;DHT22;5924;51.398;7.088;2023-06-04T10:42:40;22.90;68.80
11736;DHT22;5924;51.398;7.088;2023-06-04T10:45:08;22.80;70.10
11736;DHT22;5924;51.398;7.088;2023-06-04T10:47:34;22.90;73.80
11736;DHT22;5924;51.398;7.088;2023-06-04T10:50:12;23.20;79.30
11736;DHT22;5924;51.398;7.088;2023-06-04T10:52:55;23.20;72.60
11736;DHT22;5924;51.398;7.088;2023-06-04T10:55:46;23.20;68.20
11736;DHT22;5924;51.398;7.088;2023-06-04T10:58:12;23.30;66.10
11736;DHT22;5924;51.398;7.088;2023-06-04T11:00:39;23.30;66.80
11736;DHT22;5924;51.398;7.088;2023-06-04T11:03:05;23.20;63.60
11736;DHT22;5924;51.398;7.088;2023-06-04T11:05:56;23.00;63.90
11736;DHT22;5924;51.398;7.088;2023-06-04T11:08:28;22.90;62.30
11736;DHT22;5924;51.398;7.088;2023-06-04T11:10:55;23.10;66.80
11736;DHT22;5924;51.398;7.088;2023-06-04T11:13:24;23.30;67.60
11736;DHT22;5924;51.398;7.088;2023-06-04T11:15:51;23.60;66.10
11736;DHT22;5924;51.398;7.088;2023-06-04T11:18:34;23.70;65.50
11736;DHT22;5924;51.398;7.088;2023-06-04T11:21:00;23.70;64.00
11736;DHT22;5924;51.398;7.088;2023-06-04T11:23:27;23.60;64.00
11736;DHT22;5924;51.398;7.088;2023-06-04T11:25:53;23.70;63.00
11736;DHT22;5924;51.398;7.088;2023-06-04T11:28:20;23.60;63.30
11736;DHT22;5924;51.398;7.088;2023-06-04T11:31:01;23.60;61.80
11736;DHT22;5924;51.398;7.088;2023-06-04T11:33:51;23.90;65.90
11736;DHT22;5924;51.398;7.088;2023-06-04T11:36:38;24.30;68.50
11736;DHT22;5924;51.398;7.088;2023-06-04T11:39:04;24.40;64.70
11736;DHT22;5924;51.398;7.088;2023-06-04T11:41:33;24.70;63.90
11736;DHT22;5924;51.398;7.088;2023-06-04T11:44:04;24.80;63.50
11736;DHT22;5924;51.398;7.088;2023-06-04T11:46:32;24.90;61.50
11736;DHT22;5924;51.398;7.088;2023-06-04T11:48:58;24.70;59.30
11736;DHT22;5924;51.398;7.088;2023-06-04T11:51:24;24.80;60.10
11736;DHT22;5924;51.398;7.088;2023-06-04T11:53:50;24.90;62.80
11736;DHT22;5924;51.398;7.088;2023-06-04T11:56:16;25.30;62.50
11736;DHT22;5924;51.398;7.088;2023-06-04T11:58:43;25.40;56.50
11736;DHT22;5924;51.398;7.088;2023-06-04T12:01:14;25.40;58.40
11736;DHT22;5924;51.398;7.088;2023-06-04T12:03:43;25.70;53.80
11736;DHT22;5924;51.398;7.088;2023-06-04T12:08:50;25.80;53.60
11736;DHT22;5924;51.398;7.088;2023-06-04T12:13:55;25.70;56.30
11736;DHT22;5924;51.398;7.088;2023-06-04T12:16:21;25.90;57.50
11736;DHT22;5924;51.398;7.088;2023-06-04T12:18:47;26.20;56.40
11736;DHT22;5924;51.398;7.088;2023-06-04T12:21:24;26.80;60.80
11736;DHT22;5924;51.398;7.088;2023-06-04T12:24:13;27.30;55.40
11736;DHT22;5924;51.398;7.088;2023-06-04T12:26:41;27.90;54.80
11736;DHT22;5924;51.398;7.088;2023-06-04T12:29:14;28.30;53.60
11736;DHT22;5924;51.398;7.088;2023-06-04T12:31:44;28.50;51.40
11736;DHT22;5924;51.398;7.088;2023-06-04T12:34:11;28.80;51.00
11736;DHT22;5924;51.398;7.088;2023-06-04T12:36:37;28.80;47.40
11736;DHT22;5924;51.398;7.088;2023-06-04T12:39:07;28.50;43.70
11736;DHT22;5924;51.398;7.088;2023-06-04T12:41:33;28.40;47.00
11736;DHT22;5924;51.398;7.088;2023-06-04T12:44:00;28.70;49.70
11736;DHT22;5924;51.398;7.088;2023-06-04T12:46:26;29.20;50.50
11736;DHT22;5924;51.398;7.088;2023-06-04T12:48:54;29.80;44.60
11736;DHT22;5924;51.398;7.088;2023-06-04T12:51:20;29.60;42.90
11736;DHT22;5924;51.398;7.088;2023-06-04T12:53:52;29.50;45.10
11736;DHT22;5924;51.398;7.088;2023-06-04T12:56:27;29.50;44.50
11736;DHT22;5924;51.398;7.088;2023-06-04T12:58:52;29.50;46.00
11736;DHT22;5924;51.398;7.088;2023-06-04T13:01:21;29.40;46.40
11736;DHT22;5924;51.398;7.088;2023-06-04T13:03:54;29.40;46.80
11736;DHT22;5924;51.398;7.088;2023-06-04T13:06:29;29.10;45.00
11736;DHT22;5924;51.398;7.088;2023-06-04T13:08:54;28.90;46.70
11736;DHT22;5924;51.398;7.088;2023-06-04T13:11:20;29.20;46.30
11736;DHT22;5924;51.398;7.088;2023-06-04T13:13:47;29.90;46.30
11736;DHT22;5924;51.398;7.088;2023-06-04T13:16:19;30.70;45.10
11736;DHT22;5924;51.398;7.088;2023-06-04T13:18:44;31.50;43.80
11736;DHT22;5924;51.398;7.088;2023-06-04T13:21:10;31.60;42.70
11736;DHT22;5924;51.398;7.088;2023-06-04T13:23:36;31.70;43.60
11736;DHT22;5924;51.398;7.088;2023-06-04T13:26:01;31.90;42.30
11736;DHT22;5924;51.398;7.088;2023-06-04T13:28:27;31.80;39.90
11736;DHT22;5924;51.398;7.088;2023-06-04T13:30:53;31.80;40.60
11736;DHT22;5924;51.398;7.088;2023-06-04T13:33:18;31.70;43.20
11736;DHT22;5924;51.398;7.088;2023-06-04T13:35:46;31.30;43.40
11736;DHT22;5924;51.398;7.088;2023-06-04T13:38:12;31.60;45.80
11736;DHT22;5924;51.398;7.088;2023-06-04T13:40:49;31.90;44.90
11736;DHT22;5924;51.398;7.088;2023-06-04T13:43:15;32.00;42.30
11736;DHT22;5924;51.398;7.088;2023-06-04T13:45:41;32.00;42.30
11736;DHT22;5924;51.398;7.088;2023-06-04T13:48:07;32.00;41.50
11736;DHT22;5924;51.398;7.088;2023-06-04T13:50:33;31.60;40.80
11736;DHT22;5924;51.398;7.088;2023-06-04T13:52:59;31.50;40.80
11736;DHT22;5924;51.398;7.088;2023-06-04T13:55:25;31.80;41.00
11736;DHT22;5924;51.398;7.088;2023-06-04T13:57:50;31.70;40.70
11736;DHT22;5924;51.398;7.088;2023-06-04T14:00:36;31.60;41.10
11736;DHT22;5924;51.398;7.088;2023-06-04T14:03:08;31.50;39.90
11736;DHT22;5924;51.398;7.088;2023-06-04T14:05:33;31.60;41.60
11736;DHT22;5924;51.398;7.088;2023-06-04T14:08:02;31.40;40.90
11736;DHT22;5924;51.398;7.088;2023-06-04T14:10:28;31.40;42.40
11736;DHT22;5924;51.398;7.088;2023-06-04T14:12:53;31.70;42.30
11736;DHT22;5924;51.398;7.088;2023-06-04T14:15:25;31.10;38.40
11736;DHT22;5924;51.398;7.088;2023-06-04T14:17:51;30.70;39.00
11736;DHT22;5924;51.398;7.088;2023-06-04T14:20:17;30.90;41.10
11736;DHT22;5924;51.398;7.088;2023-06-04T14:22:42;31.20;41.10
11736;DHT22;5924;51.398;7.088;2023-06-04T14:25:08;31.40;40.10
11736;DHT22;5924;51.398;7.088;2023-06-04T14:28:22;31.70;41.30
11736;DHT22;5924;51.398;7.088;2023-06-04T14:30:29;30.50;36.80
11736;DHT22;5924;51.398;7.088;2023-06-04T14:32:54;31.20;36.90
11736;DHT22;5924;51.398;7.088;2023-06-04T14:35:20;31.40;37.60
11736;DHT22;5924;51.398;7.088;2023-06-04T14:37:46;31.70;40.00
11736;DHT22;5924;51.398;7.088;2023-06-04T14:40:15;32.00;39.90
11736;DHT22;5924;51.398;7.088;2023-06-04T14:42:40;32.40;38.60
11736;DHT22;5924;51.398;7.088;2023-06-04T14:45:07;32.50;38.80
11736;DHT22;5924;51.398;7.088;2023-06-04T14:47:35;32.50;37.90
11736;DHT22;5924;51.398;7.088;2023-06-04T14:50:01;32.30;37.00
11736;DHT22;5924;51.398;7.088;2023-06-04T14:52:28;32.40;38.10
11736;DHT22;5924;51.398;7.088;2023-06-04T14:54:54;32.40;37.70
11736;DHT22;5924;51.398;7.088;2023-06-04T14:57:19;32.60;38.90
11736;DHT22;5924;51.398;7.088;2023-06-04T14:59:47;32.50;39.00
11736;DHT22;5924;51.398;7.088;2023-06-04T15:02:16;33.20;38.40
11736;DHT22;5924;51.398;7.088;2023-06-04T15:04:45;33.20;36.00
11736;DHT22;5924;51.398;7.088;2023-06-04T15:07:12;33.30;36.70
11736;DHT22;5924;51.398;7.088;2023-06-04T15:09:40;33.50;34.40
11736;DHT22;5924;51.398;7.088;2023-06-04T15:12:09;33.00;32.40
11736;DHT22;5924;51.398;7.088;2023-06-04T15:14:34;32.70;33.60
11736;DHT22;5924;51.398;7.088;2023-06-04T15:17:00;32.90;33.70
11736;DHT22;5924;51.398;7.088;2023-06-04T15:19:27;32.30;32.10
11736;DHT22;5924;51.398;7.088;2023-06-04T15:21:56;32.10;34.50
11736;DHT22;5924;51.398;7.088;2023-06-04T15:24:25;32.40;33.70
11736;DHT22;5924;51.398;7.088;2023-06-04T15:26:51;32.30;32.50
11736;DHT22;5924;51.398;7.088;2023-06-04T15:29:16;32.40;32.30
11736;DHT22;5924;51.398;7.088;2023-06-04T15:31:42;32.30;32.60
11736;DHT22;5924;51.398;7.088;2023-06-04T15:34:08;32.90;34.80
11736;DHT22;5924;51.398;7.088;2023-06-04T15:36:39;33.10;34.70
11736;DHT22;5924;51.398;7.088;2023-06-04T15:39:05;33.80;32.50
11736;DHT22;5924;51.398;7.088;2023-06-04T15:41:33;33.80;34.70
11736;DHT22;5924;51.398;7.088;2023-06-04T15:44:00;34.20;34.50
11736;DHT22;5924;51.398;7.088;2023-06-04T15:46:26;33.60;34.10
11736;DHT22;5924;51.398;7.088;2023-06-04T15:48:52;33.20;35.60
11736;DHT22;5924;51.398;7.088;2023-06-04T15:51:17;33.90;36.00
11736;DHT22;5924;51.398;7.088;2023-06-04T15:53:51;34.20;35.50
11736;DHT22;5924;51.398;7.088;2023-06-04T15:56:22;34.50;34.40
11736;DHT22;5924;51.398;7.088;2023-06-04T15:59:06;34.80;33.90
11736;DHT22;5924;51.398;7.088;2023-06-04T16:01:32;35.30;34.60
11736;DHT22;5924;51.398;7.088;2023-06-04T16:03:57;35.60;34.10
11736;DHT22;5924;51.398;7.088;2023-06-04T16:06:26;35.20;33.40